Aviation Digital Data Service (ADDS)

Output produced by METARs form (1958 UTC 31 January 2023)
found at http://www.aviationweather.gov/metar/data/
 
METAR text: EBBR 311950Z 25008KT 9999 FEW042 BKN049 07/06 Q1023 NOSIG
Conditions at: EBBR (BRUSSELS NATIONA, BE) observed 1950 UTC 31 January 2023
Temperature: 7.0°C (45°F)
Dewpoint: 6.0°C (43°F) [RH = 93%]
Pressure (altimeter): 30.21 inches Hg (1023.0 mb)
Winds: from the WSW (250 degrees) at 9 MPH (8 knots; 4.1 m/s)
Visibility: 6 or more miles (10+ km)
Ceiling: 4900 feet AGL
Clouds: few clouds at 4200 feet AGL
broken clouds at 4900 feet AGL
Weather: no significant weather observed at this time

Forecast for: EBBR (BRUSSELS NATIONA, BE)
Text: TAF EBBR 311700Z 3118/0124 25007KT 9999 SCT020
Forecast period: 1800 UTC 31 January 2023 to 0000 UTC 02 February 2023
Forecast type: FROM: standard forecast or significant change
Winds: from the WSW (250 degrees) at 8 MPH (7 knots; 3.6 m/s)
Visibility: 6 or more miles (10+ km)
Ceiling: at least 12,000 feet AGL
Clouds: scattered clouds at 2000 feet AGL
Weather: no significant weather forecast for this period